Pagrindinis puslapis
METAR-TAF:

METAR-TAF

Oro uostai :

Puerto Maldonado, Peru

platuma: 12-38S, ilguma: 069-12W, Aukštis: 265 m

Dabartinis oras

Ataskaita buvo paskelbta 5 valandos ir 57 minutes, ne 23:00 UTC
Vėjas 2 kt nuo kintamojo kryptimis
Temperatūra 27°C
Drėgmė 89%
Slėgis 1008 hPa
Matomumas 10 km arba daugiau
nėra debesų žemiau 1500 m ir nėra kamuolinių lietaus debesų

METAR: SPTU 282300Z VRB02KT CAVOK 27/25 Q1008 RMK BIRD HAZARD RWY 01/19 PP000

Laikas: 23:57 (04:57 UTC)

Prognozė

Ataskaita buvo paskelbta 11 valandos ir 57 minutes, ne 17:00 UTC
Prognozė galioja nuo 28 metu 18 UTC su 29 metu 18 UTC
Vėjas 3 kt iš Rytų
Matomumas 10 km arba daugiau
Išsisklaidę debesys ne aukštis 1500 ft
Tapsmas
nuo 28 metu 21 UTC su 28 metu 22 UTC
Matomumas 10 km arba daugiau
nėra debesų žemiau 1500 m ir nėra kamuolinių lietaus debesų

TAF: SPTU 281700Z 2818/2918 09003KT 9999 SCT015 TX33/2819Z TN23/2911Z BECMG 2821/2822 CAVOK

Orai ataskaitas ir orų prognozės (METAR, TAF).

turimą stotys yra geltonos ir raudonos taškus žemėlapyje.

Perkelti pele per norėdami pamatyti stoties vardą.

Tada spustelėkite, norėdami matyti oro stebėjimo ir prognozės.

Norėdami pakeisti žemėlapį: spustelėkite ant žalios mygtukų su juodo kryžiaus žemyn,; žalią mygtuką su brūkšneliu, jei norite nutolinti; arba žalių rodyklių gretimoms žemėlapius.


METAR-TAF: